sensor_id;sensor_type;location;lat;lon;timestamp;P1;durP1;ratioP1;P2;durP2;ratioP2
48751;SDS011;34544;48.836;9.174;2023-02-11T00:01:23;49.77;;;22.80;;
48751;SDS011;34544;48.836;9.174;2023-02-11T00:03:52;50.77;;;22.97;;
48751;SDS011;34544;48.836;9.174;2023-02-11T00:06:18;49.27;;;24.40;;
48751;SDS011;34544;48.836;9.174;2023-02-11T00:08:44;48.97;;;23.33;;
48751;SDS011;34544;48.836;9.174;2023-02-11T00:11:13;49.83;;;24.57;;
48751;SDS011;34544;48.836;9.174;2023-02-11T00:13:40;54.50;;;24.87;;
48751;SDS011;34544;48.836;9.174;2023-02-11T00:16:07;50.80;;;21.90;;
48751;SDS011;34544;48.836;9.174;2023-02-11T00:18:35;48.93;;;23.87;;
48751;SDS011;34544;48.836;9.174;2023-02-11T00:23:36;44.37;;;23.33;;
48751;SDS011;34544;48.836;9.174;2023-02-11T00:26:02;47.57;;;24.90;;
48751;SDS011;34544;48.836;9.174;2023-02-11T00:28:29;49.40;;;24.20;;
48751;SDS011;34544;48.836;9.174;2023-02-11T00:30:55;51.33;;;23.87;;
48751;SDS011;34544;48.836;9.174;2023-02-11T00:33:21;53.17;;;23.73;;
48751;SDS011;34544;48.836;9.174;2023-02-11T00:35:47;49.40;;;23.00;;
48751;SDS011;34544;48.836;9.174;2023-02-11T00:38:13;55.57;;;24.00;;
48751;SDS011;34544;48.836;9.174;2023-02-11T00:40:38;65.97;;;26.33;;
48751;SDS011;34544;48.836;9.174;2023-02-11T00:43:04;51.37;;;24.60;;
48751;SDS011;34544;48.836;9.174;2023-02-11T00:45:29;49.37;;;23.57;;
48751;SDS011;34544;48.836;9.174;2023-02-11T00:47:55;48.00;;;22.67;;
48751;SDS011;34544;48.836;9.174;2023-02-11T00:50:21;52.33;;;24.37;;
48751;SDS011;34544;48.836;9.174;2023-02-11T00:52:47;53.50;;;24.63;;
48751;SDS011;34544;48.836;9.174;2023-02-11T00:55:13;46.07;;;21.70;;
48751;SDS011;34544;48.836;9.174;2023-02-11T00:57:40;50.63;;;25.00;;
48751;SDS011;34544;48.836;9.174;2023-02-11T01:00:06;47.73;;;22.90;;
48751;SDS011;34544;48.836;9.174;2023-02-11T01:02:32;44.33;;;23.43;;
48751;SDS011;34544;48.836;9.174;2023-02-11T01:04:58;49.73;;;24.00;;
48751;SDS011;34544;48.836;9.174;2023-02-11T01:07:24;44.43;;;22.97;;
48751;SDS011;34544;48.836;9.174;2023-02-11T01:09:50;47.47;;;22.87;;
48751;SDS011;34544;48.836;9.174;2023-02-11T01:12:16;52.07;;;22.80;;
48751;SDS011;34544;48.836;9.174;2023-02-11T01:14:42;47.30;;;22.23;;
48751;SDS011;34544;48.836;9.174;2023-02-11T01:17:08;49.50;;;21.60;;
48751;SDS011;34544;48.836;9.174;2023-02-11T01:19:35;45.50;;;22.50;;
48751;SDS011;34544;48.836;9.174;2023-02-11T01:22:01;46.73;;;21.87;;
48751;SDS011;34544;48.836;9.174;2023-02-11T01:24:27;48.10;;;21.83;;
48751;SDS011;34544;48.836;9.174;2023-02-11T01:26:53;46.57;;;22.67;;
48751;SDS011;34544;48.836;9.174;2023-02-11T01:29:21;43.97;;;21.67;;
48751;SDS011;34544;48.836;9.174;2023-02-11T01:31:47;41.23;;;21.10;;
48751;SDS011;34544;48.836;9.174;2023-02-11T01:34:12;48.83;;;22.90;;
48751;SDS011;34544;48.836;9.174;2023-02-11T01:36:39;44.27;;;21.90;;
48751;SDS011;34544;48.836;9.174;2023-02-11T01:39:05;43.20;;;22.47;;
48751;SDS011;34544;48.836;9.174;2023-02-11T01:41:32;53.37;;;22.03;;
48751;SDS011;34544;48.836;9.174;2023-02-11T01:44:20;43.20;;;20.87;;
48751;SDS011;34544;48.836;9.174;2023-02-11T01:46:47;42.83;;;22.27;;
48751;SDS011;34544;48.836;9.174;2023-02-11T01:49:17;44.77;;;21.50;;
48751;SDS011;34544;48.836;9.174;2023-02-11T01:54:23;52.58;;;23.23;;
48751;SDS011;34544;48.836;9.174;2023-02-11T01:57:13;49.43;;;21.07;;
48751;SDS011;34544;48.836;9.174;2023-02-11T02:02:22;45.30;;;21.42;;
48751;SDS011;34544;48.836;9.174;2023-02-11T02:05:04;43.77;;;22.17;;
48751;SDS011;34544;48.836;9.174;2023-02-11T02:07:48;41.43;;;21.90;;
48751;SDS011;34544;48.836;9.174;2023-02-11T02:10:22;53.57;;;24.87;;
48751;SDS011;34544;48.836;9.174;2023-02-11T02:12:50;48.17;;;23.40;;
48751;SDS011;34544;48.836;9.174;2023-02-11T02:15:22;45.80;;;22.13;;
48751;SDS011;34544;48.836;9.174;2023-02-11T02:17:53;43.90;;;23.53;;
48751;SDS011;34544;48.836;9.174;2023-02-11T02:23:17;42.23;;;22.17;;
48751;SDS011;34544;48.836;9.174;2023-02-11T02:28:57;53.00;;;23.23;;
48751;SDS011;34544;48.836;9.174;2023-02-11T02:31:58;45.20;;;22.17;;
48751;SDS011;34544;48.836;9.174;2023-02-11T02:34:50;43.78;;;20.60;;
48751;SDS011;34544;48.836;9.174;2023-02-11T02:37:23;44.57;;;21.07;;
48751;SDS011;34544;48.836;9.174;2023-02-11T02:39:56;43.60;;;21.47;;
48751;SDS011;34544;48.836;9.174;2023-02-11T02:42:26;46.53;;;22.40;;
48751;SDS011;34544;48.836;9.174;2023-02-11T02:44:52;46.40;;;21.70;;
48751;SDS011;34544;48.836;9.174;2023-02-11T02:47:20;51.83;;;22.40;;
48751;SDS011;34544;48.836;9.174;2023-02-11T02:49:45;46.27;;;22.53;;
48751;SDS011;34544;48.836;9.174;2023-02-11T03:02:38;42.07;;;22.07;;
48751;SDS011;34544;48.836;9.174;2023-02-11T03:07:42;45.72;;;21.48;;
48751;SDS011;34544;48.836;9.174;2023-02-11T03:10:11;53.30;;;21.77;;
48751;SDS011;34544;48.836;9.174;2023-02-11T03:12:43;49.87;;;24.47;;
48751;SDS011;34544;48.836;9.174;2023-02-11T03:15:11;55.77;;;24.50;;
48751;SDS011;34544;48.836;9.174;2023-02-11T03:17:40;56.30;;;23.90;;
48751;SDS011;34544;48.836;9.174;2023-02-11T03:20:11;52.70;;;23.48;;
48751;SDS011;34544;48.836;9.174;2023-02-11T03:22:45;66.93;;;24.93;;
48751;SDS011;34544;48.836;9.174;2023-02-11T03:25:13;53.30;;;25.93;;
48751;SDS011;34544;48.836;9.174;2023-02-11T03:27:46;53.20;;;24.47;;
48751;SDS011;34544;48.836;9.174;2023-02-11T03:30:34;43.97;;;22.57;;
48751;SDS011;34544;48.836;9.174;2023-02-11T03:33:09;46.47;;;22.23;;
48751;SDS011;34544;48.836;9.174;2023-02-11T03:35:43;51.33;;;23.23;;
48751;SDS011;34544;48.836;9.174;2023-02-11T03:38:14;49.27;;;22.53;;
48751;SDS011;34544;48.836;9.174;2023-02-11T03:40:46;41.37;;;21.00;;
48751;SDS011;34544;48.836;9.174;2023-02-11T03:43:14;42.77;;;21.73;;
48751;SDS011;34544;48.836;9.174;2023-02-11T03:45:52;39.70;;;20.40;;
48751;SDS011;34544;48.836;9.174;2023-02-11T03:48:21;39.90;;;21.57;;
48751;SDS011;34544;48.836;9.174;2023-02-11T03:50:57;43.83;;;22.40;;
48751;SDS011;34544;48.836;9.174;2023-02-11T03:53:25;47.13;;;21.87;;
48751;SDS011;34544;48.836;9.174;2023-02-11T03:55:51;46.53;;;23.53;;
48751;SDS011;34544;48.836;9.174;2023-02-11T03:58:19;41.80;;;21.40;;
48751;SDS011;34544;48.836;9.174;2023-02-11T04:00:45;46.90;;;22.40;;
48751;SDS011;34544;48.836;9.174;2023-02-11T04:03:11;41.53;;;21.97;;
48751;SDS011;34544;48.836;9.174;2023-02-11T04:05:37;46.47;;;22.70;;
48751;SDS011;34544;48.836;9.174;2023-02-11T04:08:03;46.80;;;23.33;;
48751;SDS011;34544;48.836;9.174;2023-02-11T04:10:29;45.97;;;23.10;;
48751;SDS011;34544;48.836;9.174;2023-02-11T04:12:55;40.10;;;21.97;;
48751;SDS011;34544;48.836;9.174;2023-02-11T04:15:21;46.17;;;22.37;;
48751;SDS011;34544;48.836;9.174;2023-02-11T04:17:47;45.20;;;20.77;;
48751;SDS011;34544;48.836;9.174;2023-02-11T04:20:13;43.10;;;22.47;;
48751;SDS011;34544;48.836;9.174;2023-02-11T04:22:38;41.17;;;21.13;;
48751;SDS011;34544;48.836;9.174;2023-02-11T04:25:05;41.03;;;20.70;;
48751;SDS011;34544;48.836;9.174;2023-02-11T04:27:31;44.97;;;23.67;;
48751;SDS011;34544;48.836;9.174;2023-02-11T04:29:57;43.17;;;22.70;;
48751;SDS011;34544;48.836;9.174;2023-02-11T04:32:23;49.83;;;23.63;;
48751;SDS011;34544;48.836;9.174;2023-02-11T04:34:48;40.70;;;20.93;;
48751;SDS011;34544;48.836;9.174;2023-02-11T04:37:14;43.93;;;22.33;;
48751;SDS011;34544;48.836;9.174;2023-02-11T04:39:40;41.80;;;21.60;;
48751;SDS011;34544;48.836;9.174;2023-02-11T04:42:05;41.57;;;23.03;;
48751;SDS011;34544;48.836;9.174;2023-02-11T04:44:31;44.60;;;21.90;;
48751;SDS011;34544;48.836;9.174;2023-02-11T04:46:57;41.97;;;22.37;;
48751;SDS011;34544;48.836;9.174;2023-02-11T04:49:23;40.90;;;21.77;;
48751;SDS011;34544;48.836;9.174;2023-02-11T04:51:49;42.73;;;22.27;;
48751;SDS011;34544;48.836;9.174;2023-02-11T04:54:15;40.70;;;22.17;;
48751;SDS011;34544;48.836;9.174;2023-02-11T04:56:41;42.08;;;22.85;;
48751;SDS011;34544;48.836;9.174;2023-02-11T04:59:07;41.73;;;22.00;;
48751;SDS011;34544;48.836;9.174;2023-02-11T05:01:32;42.40;;;21.13;;
48751;SDS011;34544;48.836;9.174;2023-02-11T05:03:58;38.27;;;20.80;;
48751;SDS011;34544;48.836;9.174;2023-02-11T05:06:24;41.93;;;22.70;;
48751;SDS011;34544;48.836;9.174;2023-02-11T05:08:50;44.97;;;24.07;;
48751;SDS011;34544;48.836;9.174;2023-02-11T05:11:17;50.30;;;23.95;;
48751;SDS011;34544;48.836;9.174;2023-02-11T05:13:45;45.38;;;24.13;;
48751;SDS011;34544;48.836;9.174;2023-02-11T05:16:12;44.23;;;22.83;;
48751;SDS011;34544;48.836;9.174;2023-02-11T05:18:39;53.73;;;23.13;;
48751;SDS011;34544;48.836;9.174;2023-02-11T05:21:06;44.13;;;22.03;;
48751;SDS011;34544;48.836;9.174;2023-02-11T05:23:33;45.53;;;22.80;;
48751;SDS011;34544;48.836;9.174;2023-02-11T05:26:00;45.92;;;24.13;;
48751;SDS011;34544;48.836;9.174;2023-02-11T05:28:26;47.03;;;24.08;;
48751;SDS011;34544;48.836;9.174;2023-02-11T05:30:52;51.13;;;25.10;;
48751;SDS011;34544;48.836;9.174;2023-02-11T05:33:18;43.17;;;23.42;;
48751;SDS011;34544;48.836;9.174;2023-02-11T05:35:44;49.05;;;22.75;;
48751;SDS011;34544;48.836;9.174;2023-02-11T05:38:09;39.77;;;22.37;;
48751;SDS011;34544;48.836;9.174;2023-02-11T05:40:35;40.40;;;22.27;;
48751;SDS011;34544;48.836;9.174;2023-02-11T05:43:01;41.75;;;23.23;;
48751;SDS011;34544;48.836;9.174;2023-02-11T05:45:26;46.53;;;23.80;;
48751;SDS011;34544;48.836;9.174;2023-02-11T05:47:52;43.67;;;23.87;;
48751;SDS011;34544;48.836;9.174;2023-02-11T05:50:18;46.57;;;23.70;;
48751;SDS011;34544;48.836;9.174;2023-02-11T05:52:45;40.03;;;22.73;;
48751;SDS011;34544;48.836;9.174;2023-02-11T05:55:10;38.45;;;22.70;;
48751;SDS011;34544;48.836;9.174;2023-02-11T05:57:36;40.22;;;22.13;;
48751;SDS011;34544;48.836;9.174;2023-02-11T06:00:02;41.60;;;21.77;;
48751;SDS011;34544;48.836;9.174;2023-02-11T06:02:37;49.88;;;22.40;;
48751;SDS011;34544;48.836;9.174;2023-02-11T06:05:03;44.57;;;22.07;;
48751;SDS011;34544;48.836;9.174;2023-02-11T06:07:29;49.85;;;23.95;;
48751;SDS011;34544;48.836;9.174;2023-02-11T06:09:54;38.47;;;23.42;;
48751;SDS011;34544;48.836;9.174;2023-02-11T06:12:20;42.10;;;23.67;;
48751;SDS011;34544;48.836;9.174;2023-02-11T06:14:46;40.45;;;22.90;;
48751;SDS011;34544;48.836;9.174;2023-02-11T06:17:11;36.25;;;21.55;;
48751;SDS011;34544;48.836;9.174;2023-02-11T06:19:37;37.33;;;23.38;;
48751;SDS011;34544;48.836;9.174;2023-02-11T06:22:03;44.33;;;24.58;;
48751;SDS011;34544;48.836;9.174;2023-02-11T06:24:29;40.03;;;22.20;;
48751;SDS011;34544;48.836;9.174;2023-02-11T06:26:54;43.75;;;23.08;;
48751;SDS011;34544;48.836;9.174;2023-02-11T06:29:20;38.53;;;22.30;;
48751;SDS011;34544;48.836;9.174;2023-02-11T06:31:45;32.97;;;21.42;;
48751;SDS011;34544;48.836;9.174;2023-02-11T06:34:11;39.58;;;22.25;;
48751;SDS011;34544;48.836;9.174;2023-02-11T06:36:37;38.28;;;21.75;;
48751;SDS011;34544;48.836;9.174;2023-02-11T06:39:04;41.25;;;23.10;;
48751;SDS011;34544;48.836;9.174;2023-02-11T06:41:31;36.97;;;21.30;;
48751;SDS011;34544;48.836;9.174;2023-02-11T06:43:56;46.33;;;23.27;;
48751;SDS011;34544;48.836;9.174;2023-02-11T06:46:22;40.22;;;24.60;;
48751;SDS011;34544;48.836;9.174;2023-02-11T06:48:48;40.70;;;23.55;;
48751;SDS011;34544;48.836;9.174;2023-02-11T06:51:13;38.63;;;21.58;;
48751;SDS011;34544;48.836;9.174;2023-02-11T06:53:41;38.30;;;22.20;;
48751;SDS011;34544;48.836;9.174;2023-02-11T06:56:09;41.10;;;23.17;;
48751;SDS011;34544;48.836;9.174;2023-02-11T06:58:37;35.55;;;21.27;;
48751;SDS011;34544;48.836;9.174;2023-02-11T07:01:07;40.15;;;21.27;;
48751;SDS011;34544;48.836;9.174;2023-02-11T07:03:38;39.35;;;23.17;;
48751;SDS011;34544;48.836;9.174;2023-02-11T07:06:05;37.60;;;21.58;;
48751;SDS011;34544;48.836;9.174;2023-02-11T07:08:35;38.90;;;23.08;;
48751;SDS011;34544;48.836;9.174;2023-02-11T07:11:11;44.67;;;22.20;;
48751;SDS011;34544;48.836;9.174;2023-02-11T07:13:38;38.50;;;22.05;;
48751;SDS011;34544;48.836;9.174;2023-02-11T07:16:05;37.58;;;22.13;;
48751;SDS011;34544;48.836;9.174;2023-02-11T07:18:32;38.28;;;21.48;;
48751;SDS011;34544;48.836;9.174;2023-02-11T07:20:58;36.85;;;21.25;;
48751;SDS011;34544;48.836;9.174;2023-02-11T07:23:23;40.70;;;23.10;;
48751;SDS011;34544;48.836;9.174;2023-02-11T07:25:49;44.88;;;21.65;;
48751;SDS011;34544;48.836;9.174;2023-02-11T07:28:15;38.97;;;21.65;;
48751;SDS011;34544;48.836;9.174;2023-02-11T07:30:40;36.08;;;22.05;;
48751;SDS011;34544;48.836;9.174;2023-02-11T07:33:06;37.58;;;23.20;;
48751;SDS011;34544;48.836;9.174;2023-02-11T07:35:31;39.97;;;22.90;;
48751;SDS011;34544;48.836;9.174;2023-02-11T07:37:57;40.40;;;22.95;;
48751;SDS011;34544;48.836;9.174;2023-02-11T07:40:22;35.85;;;21.65;;
48751;SDS011;34544;48.836;9.174;2023-02-11T07:42:48;38.10;;;22.50;;
48751;SDS011;34544;48.836;9.174;2023-02-11T07:45:14;37.90;;;22.08;;
48751;SDS011;34544;48.836;9.174;2023-02-11T07:47:40;38.35;;;22.63;;
48751;SDS011;34544;48.836;9.174;2023-02-11T07:50:07;38.00;;;21.35;;
48751;SDS011;34544;48.836;9.174;2023-02-11T07:52:33;35.67;;;21.90;;
48751;SDS011;34544;48.836;9.174;2023-02-11T07:54:59;41.08;;;21.65;;
48751;SDS011;34544;48.836;9.174;2023-02-11T07:57:25;40.30;;;20.88;;
48751;SDS011;34544;48.836;9.174;2023-02-11T07:59:51;40.67;;;20.70;;
48751;SDS011;34544;48.836;9.174;2023-02-11T08:02:17;36.33;;;21.27;;
48751;SDS011;34544;48.836;9.174;2023-02-11T08:04:44;41.70;;;22.25;;
48751;SDS011;34544;48.836;9.174;2023-02-11T08:07:13;36.38;;;20.65;;
48751;SDS011;34544;48.836;9.174;2023-02-11T08:09:40;40.63;;;22.90;;
48751;SDS011;34544;48.836;9.174;2023-02-11T08:12:05;38.60;;;23.88;;
48751;SDS011;34544;48.836;9.174;2023-02-11T08:14:31;39.13;;;22.88;;
48751;SDS011;34544;48.836;9.174;2023-02-11T08:16:57;43.10;;;20.95;;
48751;SDS011;34544;48.836;9.174;2023-02-11T08:19:22;41.10;;;22.20;;
48751;SDS011;34544;48.836;9.174;2023-02-11T08:21:48;34.00;;;19.65;;
48751;SDS011;34544;48.836;9.174;2023-02-11T08:24:14;35.78;;;21.25;;
48751;SDS011;34544;48.836;9.174;2023-02-11T08:26:40;34.22;;;21.42;;
48751;SDS011;34544;48.836;9.174;2023-02-11T08:29:08;34.08;;;19.55;;
48751;SDS011;34544;48.836;9.174;2023-02-11T08:31:36;37.58;;;21.73;;
48751;SDS011;34544;48.836;9.174;2023-02-11T08:34:04;38.50;;;21.42;;
48751;SDS011;34544;48.836;9.174;2023-02-11T08:36:31;37.70;;;21.65;;
48751;SDS011;34544;48.836;9.174;2023-02-11T08:38:59;33.70;;;21.20;;
48751;SDS011;34544;48.836;9.174;2023-02-11T08:41:27;40.13;;;22.13;;
48751;SDS011;34544;48.836;9.174;2023-02-11T08:43:53;36.83;;;19.98;;
48751;SDS011;34544;48.836;9.174;2023-02-11T08:46:19;30.02;;;19.02;;
48751;SDS011;34544;48.836;9.174;2023-02-11T08:48:46;31.85;;;20.10;;
48751;SDS011;34544;48.836;9.174;2023-02-11T08:51:13;32.25;;;20.52;;
48751;SDS011;34544;48.836;9.174;2023-02-11T08:53:44;31.05;;;19.75;;
48751;SDS011;34544;48.836;9.174;2023-02-11T08:56:10;30.05;;;19.15;;
48751;SDS011;34544;48.836;9.174;2023-02-11T08:58:37;33.17;;;20.00;;
48751;SDS011;34544;48.836;9.174;2023-02-11T09:01:10;31.63;;;20.40;;
48751;SDS011;34544;48.836;9.174;2023-02-11T09:03:36;30.17;;;19.48;;
48751;SDS011;34544;48.836;9.174;2023-02-11T09:06:03;36.58;;;21.70;;
48751;SDS011;34544;48.836;9.174;2023-02-11T09:08:33;31.58;;;19.52;;
48751;SDS011;34544;48.836;9.174;2023-02-11T09:11:00;28.85;;;18.35;;
48751;SDS011;34544;48.836;9.174;2023-02-11T09:13:25;36.95;;;20.05;;
48751;SDS011;34544;48.836;9.174;2023-02-11T09:15:51;28.42;;;19.92;;
48751;SDS011;34544;48.836;9.174;2023-02-11T09:18:17;29.85;;;18.67;;
48751;SDS011;34544;48.836;9.174;2023-02-11T09:20:42;32.05;;;20.15;;
48751;SDS011;34544;48.836;9.174;2023-02-11T09:23:08;25.77;;;18.58;;
48751;SDS011;34544;48.836;9.174;2023-02-11T09:25:34;30.65;;;18.88;;
48751;SDS011;34544;48.836;9.174;2023-02-11T09:28:02;27.88;;;18.38;;
48751;SDS011;34544;48.836;9.174;2023-02-11T09:30:28;28.95;;;18.83;;
48751;SDS011;34544;48.836;9.174;2023-02-11T09:32:53;27.33;;;18.95;;
48751;SDS011;34544;48.836;9.174;2023-02-11T09:35:19;25.17;;;19.42;;
48751;SDS011;34544;48.836;9.174;2023-02-11T09:37:45;27.42;;;17.63;;
48751;SDS011;34544;48.836;9.174;2023-02-11T09:40:11;26.45;;;18.75;;
48751;SDS011;34544;48.836;9.174;2023-02-11T09:42:45;26.20;;;18.75;;
48751;SDS011;34544;48.836;9.174;2023-02-11T09:45:18;24.13;;;17.48;;
48751;SDS011;34544;48.836;9.174;2023-02-11T09:47:48;24.17;;;17.77;;
48751;SDS011;34544;48.836;9.174;2023-02-11T09:50:17;22.95;;;16.77;;
48751;SDS011;34544;48.836;9.174;2023-02-11T09:52:55;27.15;;;17.38;;
48751;SDS011;34544;48.836;9.174;2023-02-11T09:55:40;23.42;;;16.95;;
48751;SDS011;34544;48.836;9.174;2023-02-11T09:58:15;22.45;;;16.70;;
48751;SDS011;34544;48.836;9.174;2023-02-11T10:01:03;21.52;;;16.70;;
48751;SDS011;34544;48.836;9.174;2023-02-11T10:23:32;23.20;;;14.48;;
48751;SDS011;34544;48.836;9.174;2023-02-11T10:26:00;18.67;;;13.75;;
48751;SDS011;34544;48.836;9.174;2023-02-11T10:28:35;21.42;;;14.27;;
48751;SDS011;34544;48.836;9.174;2023-02-11T10:34:02;22.85;;;18.15;;
48751;SDS011;34544;48.836;9.174;2023-02-11T10:36:34;22.75;;;17.30;;
48751;SDS011;34544;48.836;9.174;2023-02-11T10:41:56;10.45;;;7.15;;
48751;SDS011;34544;48.836;9.174;2023-02-11T10:44:35;7.30;;;5.22;;
48751;SDS011;34544;48.836;9.174;2023-02-11T10:47:36;7.85;;;3.55;;
48751;SDS011;34544;48.836;9.174;2023-02-11T10:49:58;9.68;;;4.40;;
48751;SDS011;34544;48.836;9.174;2023-02-11T10:52:27;5.93;;;4.28;;
48751;SDS011;34544;48.836;9.174;2023-02-11T10:55:02;6.07;;;4.93;;
48751;SDS011;34544;48.836;9.174;2023-02-11T10:57:35;14.20;;;6.35;;
48751;SDS011;34544;48.836;9.174;2023-02-11T11:00:25;15.20;;;6.60;;
48751;SDS011;34544;48.836;9.174;2023-02-11T11:03:20;10.10;;;6.95;;
48751;SDS011;34544;48.836;9.174;2023-02-11T11:05:55;5.57;;;4.80;;
48751;SDS011;34544;48.836;9.174;2023-02-11T11:08:36;6.15;;;4.65;;
48751;SDS011;34544;48.836;9.174;2023-02-11T11:11:04;10.40;;;5.50;;
48751;SDS011;34544;48.836;9.174;2023-02-11T11:13:33;6.82;;;4.85;;
48751;SDS011;34544;48.836;9.174;2023-02-11T11:18:32;7.53;;;5.25;;
48751;SDS011;34544;48.836;9.174;2023-02-11T11:20:58;7.50;;;5.40;;
48751;SDS011;34544;48.836;9.174;2023-02-11T11:23:27;8.70;;;6.05;;
48751;SDS011;34544;48.836;9.174;2023-02-11T11:28:30;9.35;;;6.95;;
48751;SDS011;34544;48.836;9.174;2023-02-11T11:32:04;11.10;;;6.65;;
48751;SDS011;34544;48.836;9.174;2023-02-11T11:34:33;9.55;;;6.18;;
48751;SDS011;34544;48.836;9.174;2023-02-11T11:37:27;6.32;;;5.70;;
48751;SDS011;34544;48.836;9.174;2023-02-11T11:42:37;8.95;;;6.03;;
48751;SDS011;34544;48.836;9.174;2023-02-11T11:47:47;8.60;;;6.50;;
48751;SDS011;34544;48.836;9.174;2023-02-11T11:50:41;10.48;;;6.78;;
48751;SDS011;34544;48.836;9.174;2023-02-11T11:53:11;15.68;;;6.88;;
48751;SDS011;34544;48.836;9.174;2023-02-11T11:58:29;11.35;;;7.15;;
48751;SDS011;34544;48.836;9.174;2023-02-11T12:01:13;10.25;;;6.90;;
48751;SDS011;34544;48.836;9.174;2023-02-11T12:03:57;8.13;;;6.90;;
48751;SDS011;34544;48.836;9.174;2023-02-11T12:06:45;8.70;;;6.78;;
48751;SDS011;34544;48.836;9.174;2023-02-11T12:14:58;14.43;;;8.52;;
48751;SDS011;34544;48.836;9.174;2023-02-11T12:29:30;12.43;;;7.93;;
48751;SDS011;34544;48.836;9.174;2023-02-11T12:34:55;17.88;;;11.18;;
48751;SDS011;34544;48.836;9.174;2023-02-11T12:43:01;12.00;;;7.38;;
48751;SDS011;34544;48.836;9.174;2023-02-11T12:51:22;15.10;;;10.35;;
48751;SDS011;34544;48.836;9.174;2023-02-11T12:56:39;15.55;;;11.30;;
48751;SDS011;34544;48.836;9.174;2023-02-11T12:59:17;13.20;;;10.30;;
48751;SDS011;34544;48.836;9.174;2023-02-11T13:01:50;18.85;;;10.98;;
48751;SDS011;34544;48.836;9.174;2023-02-11T13:09:23;15.90;;;11.55;;
48751;SDS011;34544;48.836;9.174;2023-02-11T13:11:54;17.65;;;11.40;;
48751;SDS011;34544;48.836;9.174;2023-02-11T13:14:44;17.55;;;12.85;;
48751;SDS011;34544;48.836;9.174;2023-02-11T13:17:13;16.80;;;12.68;;
48751;SDS011;34544;48.836;9.174;2023-02-11T13:19:47;17.92;;;12.95;;
48751;SDS011;34544;48.836;9.174;2023-02-11T13:22:23;16.98;;;12.32;;
48751;SDS011;34544;48.836;9.174;2023-02-11T13:30:27;26.08;;;14.45;;
48751;SDS011;34544;48.836;9.174;2023-02-11T13:35:25;20.73;;;12.60;;
48751;SDS011;34544;48.836;9.174;2023-02-11T13:41:04;19.42;;;13.43;;
48751;SDS011;34544;48.836;9.174;2023-02-11T13:43:39;20.50;;;12.38;;
48751;SDS011;34544;48.836;9.174;2023-02-11T13:46:05;16.52;;;12.15;;
48751;SDS011;34544;48.836;9.174;2023-02-11T13:51:03;17.73;;;12.60;;
48751;SDS011;34544;48.836;9.174;2023-02-11T13:53:50;17.42;;;12.52;;
48751;SDS011;34544;48.836;9.174;2023-02-11T13:58:59;16.95;;;12.73;;
48751;SDS011;34544;48.836;9.174;2023-02-11T14:10:52;16.25;;;13.23;;
48751;SDS011;34544;48.836;9.174;2023-02-11T14:16:11;18.02;;;13.55;;
48751;SDS011;34544;48.836;9.174;2023-02-11T14:26:41;18.08;;;12.38;;
48751;SDS011;34544;48.836;9.174;2023-02-11T14:37:48;21.83;;;14.18;;
48751;SDS011;34544;48.836;9.174;2023-02-11T14:40:41;16.45;;;13.32;;
48751;SDS011;34544;48.836;9.174;2023-02-11T14:43:12;17.92;;;13.27;;
48751;SDS011;34544;48.836;9.174;2023-02-11T14:45:50;17.10;;;12.43;;
48751;SDS011;34544;48.836;9.174;2023-02-11T14:48:19;17.15;;;12.60;;
48751;SDS011;34544;48.836;9.174;2023-02-11T14:53:34;18.38;;;12.25;;
48751;SDS011;34544;48.836;9.174;2023-02-11T14:56:01;17.42;;;12.65;;
48751;SDS011;34544;48.836;9.174;2023-02-11T14:58:28;16.95;;;11.90;;
48751;SDS011;34544;48.836;9.174;2023-02-11T15:00:59;17.05;;;12.07;;
48751;SDS011;34544;48.836;9.174;2023-02-11T15:03:36;16.98;;;12.98;;
48751;SDS011;34544;48.836;9.174;2023-02-11T15:08:32;21.33;;;12.98;;
48751;SDS011;34544;48.836;9.174;2023-02-11T15:11:02;17.30;;;13.48;;
48751;SDS011;34544;48.836;9.174;2023-02-11T15:13:31;16.85;;;13.45;;
48751;SDS011;34544;48.836;9.174;2023-02-11T15:16:06;15.07;;;12.60;;
48751;SDS011;34544;48.836;9.174;2023-02-11T15:18:40;16.65;;;12.70;;
48751;SDS011;34544;48.836;9.174;2023-02-11T15:21:11;18.92;;;13.00;;
48751;SDS011;34544;48.836;9.174;2023-02-11T15:23:37;19.83;;;12.95;;
48751;SDS011;34544;48.836;9.174;2023-02-11T15:26:11;18.23;;;13.30;;
48751;SDS011;34544;48.836;9.174;2023-02-11T15:28:43;21.38;;;15.30;;
48751;SDS011;34544;48.836;9.174;2023-02-11T15:31:16;21.48;;;14.43;;
48751;SDS011;34544;48.836;9.174;2023-02-11T15:33:43;17.15;;;13.35;;
48751;SDS011;34544;48.836;9.174;2023-02-11T15:36:13;20.88;;;14.10;;
48751;SDS011;34544;48.836;9.174;2023-02-11T15:38:39;19.27;;;13.52;;
48751;SDS011;34544;48.836;9.174;2023-02-11T15:41:05;22.48;;;14.57;;
48751;SDS011;34544;48.836;9.174;2023-02-11T15:43:48;16.30;;;13.50;;
48751;SDS011;34544;48.836;9.174;2023-02-11T15:46:17;20.52;;;15.43;;
48751;SDS011;34544;48.836;9.174;2023-02-11T15:48:52;18.80;;;13.57;;
48751;SDS011;34544;48.836;9.174;2023-02-11T15:51:28;19.17;;;13.30;;
48751;SDS011;34544;48.836;9.174;2023-02-11T15:53:59;24.60;;;15.23;;
48751;SDS011;34544;48.836;9.174;2023-02-11T15:57:09;21.05;;;15.75;;
48751;SDS011;34544;48.836;9.174;2023-02-11T15:59:30;22.30;;;14.25;;
48751;SDS011;34544;48.836;9.174;2023-02-11T16:02:15;21.73;;;14.45;;
48751;SDS011;34544;48.836;9.174;2023-02-11T16:04:54;26.25;;;16.63;;
48751;SDS011;34544;48.836;9.174;2023-02-11T16:12:53;23.02;;;15.07;;
48751;SDS011;34544;48.836;9.174;2023-02-11T16:15:47;21.00;;;15.00;;
48751;SDS011;34544;48.836;9.174;2023-02-11T16:20:55;22.25;;;15.80;;
48751;SDS011;34544;48.836;9.174;2023-02-11T16:23:25;23.67;;;15.25;;
48751;SDS011;34544;48.836;9.174;2023-02-11T16:26:23;20.63;;;15.05;;
48751;SDS011;34544;48.836;9.174;2023-02-11T16:29:15;26.63;;;15.15;;
48751;SDS011;34544;48.836;9.174;2023-02-11T16:31:43;21.70;;;15.27;;
48751;SDS011;34544;48.836;9.174;2023-02-11T16:34:18;26.05;;;17.48;;
48751;SDS011;34544;48.836;9.174;2023-02-11T16:36:44;32.67;;;19.13;;
48751;SDS011;34544;48.836;9.174;2023-02-11T16:39:11;26.77;;;17.95;;
48751;SDS011;34544;48.836;9.174;2023-02-11T16:41:37;27.30;;;16.95;;
48751;SDS011;34544;48.836;9.174;2023-02-11T16:44:02;27.38;;;17.85;;
48751;SDS011;34544;48.836;9.174;2023-02-11T16:46:28;29.45;;;19.33;;
48751;SDS011;34544;48.836;9.174;2023-02-11T16:48:56;29.08;;;19.08;;
48751;SDS011;34544;48.836;9.174;2023-02-11T16:51:22;28.23;;;19.77;;
48751;SDS011;34544;48.836;9.174;2023-02-11T16:53:48;25.20;;;18.15;;
48751;SDS011;34544;48.836;9.174;2023-02-11T16:56:15;25.70;;;17.85;;
48751;SDS011;34544;48.836;9.174;2023-02-11T16:58:41;27.63;;;18.13;;
48751;SDS011;34544;48.836;9.174;2023-02-11T17:01:08;29.50;;;19.10;;
48751;SDS011;34544;48.836;9.174;2023-02-11T17:03:34;35.83;;;18.58;;
48751;SDS011;34544;48.836;9.174;2023-02-11T17:06:05;30.58;;;19.17;;
48751;SDS011;34544;48.836;9.174;2023-02-11T17:08:33;30.77;;;18.30;;
48751;SDS011;34544;48.836;9.174;2023-02-11T17:11:00;32.15;;;19.80;;
48751;SDS011;34544;48.836;9.174;2023-02-11T17:13:26;30.65;;;19.48;;
48751;SDS011;34544;48.836;9.174;2023-02-11T17:15:52;35.90;;;21.60;;
48751;SDS011;34544;48.836;9.174;2023-02-11T17:18:17;36.42;;;21.63;;
48751;SDS011;34544;48.836;9.174;2023-02-11T17:20:43;38.55;;;21.23;;
48751;SDS011;34544;48.836;9.174;2023-02-11T17:23:09;29.70;;;20.13;;